Time;durP1;ratioP1;P1;durP2;ratioP2;P2;SDS_P1;SDS_P2;PMS_P1;PMS_P2;Temp;Humidity;BMP_temperature;BMP_pressure;BME280_temperature;BME280_humidity;BME280_pressure;Samples;Min_cycle;Max_cycle;Signal;HPM_P1;HPM_P2
2023/03/09 00:00:29;;;;;;;4.05;2.28;;;;;;;-3.95;58.29;101754.84;4895543;28;20399;-64
2023/03/09 00:03:01;;;;;;;3.42;2.75;;;;;;;-3.84;58.33;101758.13;4891097;28;20408;-63
2023/03/09 00:05:31;;;;;;;6.18;2.58;;;;;;;-3.81;58.20;101766.00;4894042;28;20504;-66
2023/03/09 00:08:02;;;;;;;3.15;2.20;;;;;;;-3.73;57.57;101767.38;4893245;28;20140;-66
2023/03/09 00:10:32;;;;;;;3.50;2.00;;;;;;;-3.83;56.91;101741.13;4893385;28;20048;-65
2023/03/09 00:13:03;;;;;;;3.88;2.45;;;;;;;-3.53;58.20;101771.22;4893527;28;20049;-64
2023/03/09 00:15:33;;;;;;;5.90;2.28;;;;;;;-3.48;57.34;101762.19;4893437;28;20053;-65
2023/03/09 00:18:07;;;;;;;2.80;2.15;;;;;;;-3.70;56.83;101759.03;4892928;28;20130;-65
2023/03/09 00:20:39;;;;;;;3.53;2.33;;;;;;;-3.97;57.22;101714.69;4892834;28;20087;-64
2023/03/09 00:23:10;;;;;;;5.75;2.78;;;;;;;-3.56;58.01;101755.69;4896986;28;20053;-65
2023/03/09 00:25:41;;;;;;;3.70;2.50;;;;;;;-3.36;57.94;101759.53;4915575;28;20076;-63
2023/03/09 00:28:11;;;;;;;2.65;1.80;;;;;;;-3.13;57.58;101747.31;4906122;28;20049;-65
2023/03/09 00:30:42;;;;;;;2.08;1.83;;;;;;;-3.18;56.02;101748.69;4902069;28;20063;-65
2023/03/09 00:33:14;;;;;;;4.25;2.15;;;;;;;-3.27;56.14;101748.97;4909479;28;20060;-64
2023/03/09 00:35:44;;;;;;;4.72;2.10;;;;;;;-3.09;56.24;101755.28;4913727;28;20049;-65
2023/03/09 00:38:15;;;;;;;3.38;2.33;;;;;;;-3.06;56.61;101740.13;4909965;28;20056;-64
2023/03/09 00:40:45;;;;;;;4.82;2.45;;;;;;;-3.05;55.00;101741.88;4899424;28;20051;-66
2023/03/09 00:43:16;;;;;;;3.13;1.83;;;;;;;-3.05;55.20;101726.53;4917598;28;20055;-66
2023/03/09 00:45:47;;;;;;;3.40;1.83;;;;;;;-3.16;53.16;101732.66;4920985;28;20170;-66
2023/03/09 00:48:19;;;;;;;5.53;2.25;;;;;;;-3.31;54.39;101726.59;4882380;28;20049;-66
2023/03/09 00:50:49;;;;;;;7.15;2.08;;;;;;;-3.31;55.07;101727.47;4889908;28;20060;-66
2023/03/09 00:53:20;;;;;;;3.13;1.92;;;;;;;-3.37;55.19;101728.75;4878340;28;20167;-65
2023/03/09 00:55:50;;;;;;;3.33;2.00;;;;;;;-3.38;55.34;101724.44;4874681;28;20066;-66
2023/03/09 00:58:21;;;;;;;3.05;1.77;;;;;;;-3.24;54.82;101728.75;4873092;28;20083;-65
2023/03/09 01:00:51;;;;;;;2.53;1.98;;;;;;;-3.17;54.99;101724.88;4873233;28;20056;-67
2023/03/09 01:03:23;;;;;;;2.83;1.83;;;;;;;-3.07;54.82;101723.03;4873684;28;20049;-66
2023/03/09 01:05:56;;;;;;;5.32;2.42;;;;;;;-3.18;54.32;101688.22;4873471;28;20045;-66
2023/03/09 01:08:27;;;;;;;4.93;2.17;;;;;;;-2.99;54.12;101727.72;4874136;28;20864;-66
2023/03/09 01:10:57;;;;;;;5.43;2.00;;;;;;;-2.97;55.37;101736.34;4872730;28;20067;-67
2023/03/09 01:13:28;;;;;;;5.63;2.10;;;;;;;-2.84;55.40;101731.22;4873403;28;20060;-66
2023/03/09 01:15:59;;;;;;;6.28;2.50;;;;;;;-2.91;54.55;101723.97;4872646;28;20055;-65
2023/03/09 01:18:31;;;;;;;2.50;1.85;;;;;;;-2.73;55.03;101725.06;4887254;28;20147;-67
2023/03/09 01:21:02;;;;;;;2.90;2.00;;;;;;;-2.70;52.41;101730.38;4890757;28;20503;-67
2023/03/09 01:23:42;;;;;;;4.60;2.30;;;;;;;-3.16;53.31;101663.63;4895374;28;20475;-66
2023/03/09 01:26:13;;;;;;;4.93;2.45;;;;;;;-2.78;54.16;101723.91;4895829;28;20057;-70
2023/03/09 01:28:43;;;;;;;4.07;2.47;;;;;;;-2.80;53.17;101716.94;4900691;28;20148;-65
2023/03/09 01:31:15;;;;;;;4.18;2.50;;;;;;;-2.65;53.86;101723.84;4900753;28;20068;-68
2023/03/09 01:33:49;;;;;;;4.53;2.70;;;;;;;-2.63;53.58;101722.28;4911995;28;20462;-67
2023/03/09 01:36:20;;;;;;;4.32;2.50;;;;;;;-2.61;52.84;101720.69;4906053;28;20590;-67
2023/03/09 01:38:51;;;;;;;4.72;2.60;;;;;;;-2.51;53.62;101700.78;4905840;28;20067;-68
2023/03/09 01:41:23;;;;;;;6.32;2.60;;;;;;;-2.52;53.58;101673.41;4900348;28;20079;-67
2023/03/09 01:43:54;;;;;;;5.13;2.38;;;;;;;-2.40;53.60;101684.38;4893379;28;20072;-67
2023/03/09 01:46:38;;;;;;;2.72;1.90;;;;;;;-2.63;52.16;101625.03;4898307;28;20045;-66
2023/03/09 01:49:36;;;;;;;3.50;2.08;;;;;;;-2.03;52.05;101686.50;4904508;28;20048;-67
2023/03/09 01:52:15;;;;;;;2.42;1.63;;;;;;;-2.14;51.22;101685.03;4903356;28;20045;-67
2023/03/09 01:54:49;;;;;;;4.47;1.77;;;;;;;-2.05;50.78;101682.97;4903126;28;20049;-66
2023/03/09 01:57:27;;;;;;;3.60;2.10;;;;;;;-1.94;50.66;101671.66;4909300;28;20044;-67
2023/03/09 02:00:04;;;;;;;1.80;1.60;;;;;;;-1.75;50.23;101663.31;4914617;28;20447;-67
2023/03/09 02:02:37;;;;;;;3.35;2.05;;;;;;;-1.47;49.65;101683.69;4906673;28;20106;-67
2023/03/09 02:05:13;;;;;;;2.88;1.98;;;;;;;-1.52;49.43;101682.56;4915414;28;20147;-68
2023/03/09 02:07:48;;;;;;;3.10;1.60;;;;;;;-1.41;49.78;101691.72;4900315;28;20162;-69
2023/03/09 02:10:24;;;;;;;3.60;1.70;;;;;;;-1.19;49.50;101698.03;4914924;28;20044;-67
2023/03/09 02:12:59;;;;;;;3.00;1.73;;;;;;;-1.47;47.57;101680.22;4916804;28;20063;-68
2023/03/09 02:15:29;;;;;;;2.83;1.73;;;;;;;-1.35;47.38;101707.44;4926556;28;20133;-67
2023/03/09 02:18:00;;;;;;;2.30;1.67;;;;;;;-1.35;47.36;101707.44;4921531;28;20776;-68
2023/03/09 02:20:38;;;;;;;2.22;1.60;;;;;;;-1.38;48.55;101681.63;4916559;28;20053;-68
2023/03/09 02:23:24;;;;;;;2.78;1.60;;;;;;;-1.54;46.68;101689.28;4869551;28;20455;-69
2023/03/09 02:26:03;;;;;;;3.83;1.60;;;;;;;-1.67;47.30;101679.13;4901455;28;20873;-69
2023/03/09 02:28:36;;;;;;;2.50;1.67;;;;;;;-1.63;46.92;101683.63;4896010;28;20059;-68
2023/03/09 02:31:08;;;;;;;2.40;1.90;;;;;;;-1.81;46.56;101669.00;4908549;28;20045;-68
2023/03/09 02:33:42;;;;;;;4.38;1.85;;;;;;;-1.84;46.84;101663.69;4903496;28;20111;-69
2023/03/09 02:36:16;;;;;;;3.10;1.90;;;;;;;-1.53;47.59;101650.00;4893249;28;20048;-68
2023/03/09 02:38:51;;;;;;;2.72;1.70;;;;;;;-1.42;46.36;101635.22;4904079;28;20052;-69
2023/03/09 02:41:24;;;;;;;3.10;1.75;;;;;;;-1.26;46.55;101649.75;4891996;28;20158;-68
2023/03/09 02:44:02;;;;;;;2.38;1.60;;;;;;;-1.37;46.37;101614.16;4896873;28;20851;-67
2023/03/09 02:46:38;;;;;;;3.28;2.03;;;;;;;-1.18;47.03;101615.13;4858861;28;20138;-68
2023/03/09 02:49:13;;;;;;;1.95;1.70;;;;;;;-1.14;46.99;101615.38;4858675;28;20049;-66
2023/03/09 02:51:50;;;;;;;3.33;1.80;;;;;;;-1.32;48.02;101558.88;4866570;28;20147;-69
2023/03/09 02:54:25;;;;;;;3.22;1.90;;;;;;;-1.13;47.41;101611.13;4849917;28;20059;-68
2023/03/09 02:57:00;;;;;;;4.18;2.10;;;;;;;-1.13;47.39;101600.88;4866745;28;20135;-69
2023/03/09 02:59:38;;;;;;;2.40;1.70;;;;;;;-1.18;46.85;101592.06;4857399;28;20057;-69
2023/03/09 03:02:15;;;;;;;2.15;1.70;;;;;;;-1.13;47.22;101600.88;4855876;28;21029;-68
2023/03/09 03:04:52;;;;;;;2.65;2.10;;;;;;;-0.95;48.46;101599.28;4862164;28;20128;-67
2023/03/09 03:07:29;;;;;;;3.75;1.70;;;;;;;-0.91;47.14;101601.19;4850176;28;20427;-69
2023/03/09 03:10:05;;;;;;;2.35;1.90;;;;;;;-1.02;48.17;101599.75;4857963;28;20727;-69
2023/03/09 03:12:42;;;;;;;3.97;2.33;;;;;;;-1.32;49.00;101564.00;4861979;28;20122;-69
2023/03/09 03:15:20;;;;;;;4.85;2.30;;;;;;;-0.79;49.46;101618.91;4852570;28;20050;-69
2023/03/09 03:17:55;;;;;;;3.60;2.33;;;;;;;-0.63;49.98;101623.13;4858088;28;20069;-68
2023/03/09 03:20:30;;;;;;;3.28;2.30;;;;;;;-0.54;48.94;101599.59;4863077;28;20050;-68
2023/03/09 03:23:05;;;;;;;4.18;2.33;;;;;;;-0.34;47.87;101614.31;4852255;28;20049;-68
2023/03/09 03:25:41;;;;;;;4.13;2.28;;;;;;;-0.31;47.14;101623.84;4866806;28;20081;-68
2023/03/09 03:28:18;;;;;;;2.00;1.60;;;;;;;-0.37;46.18;101618.44;4860986;28;20053;-68
2023/03/09 03:30:59;;;;;;;3.70;2.25;;;;;;;-0.48;45.84;101579.34;4854328;28;20321;-67
2023/03/09 03:33:35;;;;;;;3.78;2.28;;;;;;;-0.26;45.34;101591.56;4852502;28;20057;-68
2023/03/09 03:36:10;;;;;;;2.90;1.95;;;;;;;0.12;45.11;101589.94;4864859;28;20049;-68
2023/03/09 03:38:47;;;;;;;4.78;2.20;;;;;;;-0.03;44.94;101596.13;4853863;28;20065;-69
2023/03/09 03:41:23;;;;;;;5.38;2.08;;;;;;;-0.31;45.77;101593.91;4865018;28;20051;-68
2023/03/09 03:43:59;;;;;;;3.60;2.60;;;;;;;-0.26;46.56;101581.28;4867953;28;20056;-68
2023/03/09 03:46:38;;;;;;;5.18;2.70;;;;;;;-0.50;47.31;101581.88;4900221;28;20372;-68
2023/03/09 03:49:14;;;;;;;3.30;2.47;;;;;;;-0.47;49.75;101589.72;4902560;28;20052;-68
2023/03/09 03:51:50;;;;;;;5.07;2.70;;;;;;;-0.46;49.28;101596.59;4897124;28;20408;-68
2023/03/09 03:54:28;;;;;;;4.03;2.28;;;;;;;-0.33;51.54;101604.91;4898617;28;20170;-68
2023/03/09 03:57:04;;;;;;;5.35;2.88;;;;;;;-0.14;51.24;101556.19;4898097;28;20638;-68
2023/03/09 03:59:42;;;;;;;3.17;2.03;;;;;;;0.08;48.82;101598.34;4907039;28;20052;-67
2023/03/09 04:02:20;;;;;;;3.78;2.03;;;;;;;-0.24;49.55;101610.50;4900222;28;20041;-68
2023/03/09 04:04:55;;;;;;;4.10;2.35;;;;;;;-0.35;50.70;101606.53;4900955;28;20053;-67
2023/03/09 04:07:31;;;;;;;4.82;2.42;;;;;;;-0.14;51.47;101602.44;4911111;28;20131;-68
2023/03/09 04:10:06;;;;;;;3.22;2.00;;;;;;;-0.16;49.52;101593.78;4890634;28;20433;-68
2023/03/09 04:12:41;;;;;;;4.40;2.35;;;;;;;-0.20;50.40;101607.28;4904030;28;20052;-68
2023/03/09 04:15:14;;;;;;;3.20;2.20;;;;;;;-0.53;50.53;101561.16;4898521;28;20052;-68
2023/03/09 04:17:51;;;;;;;5.22;2.33;;;;;;;-0.24;50.80;101615.66;4901750;28;20069;-68
2023/03/09 04:20:25;;;;;;;3.72;2.20;;;;;;;-0.25;50.41;101599.38;4896606;28;20072;-68
2023/03/09 04:22:59;;;;;;;4.25;2.28;;;;;;;-0.18;50.01;101600.53;4903583;28;20060;-68
2023/03/09 04:25:32;;;;;;;8.15;2.60;;;;;;;0.08;50.83;101598.34;4897315;28;20144;-67
2023/03/09 04:28:05;;;;;;;3.25;1.90;;;;;;;0.06;49.72;101594.81;4903920;28;20064;-67
2023/03/09 04:30:38;;;;;;;3.65;2.00;;;;;;;0.21;50.20;101585.25;4908668;28;20467;-68
2023/03/09 04:33:15;;;;;;;3.60;2.15;;;;;;;0.18;49.42;101588.56;4897041;28;20049;-67
2023/03/09 04:35:47;;;;;;;3.65;2.20;;;;;;;0.10;49.67;101571.00;4910825;28;20067;-68
2023/03/09 04:38:21;;;;;;;4.78;2.33;;;;;;;0.50;50.18;101588.28;4905423;28;20065;-68
2023/03/09 04:40:57;;;;;;;3.53;1.80;;;;;;;0.71;50.81;101562.66;4893082;28;20061;-68
2023/03/09 04:43:33;;;;;;;4.72;2.10;;;;;;;1.17;50.52;101580.09;4907033;28;20044;-67
2023/03/09 04:46:07;;;;;;;5.18;2.50;;;;;;;1.20;48.20;101570.81;4897542;28;20087;-68
2023/03/09 04:48:45;;;;;;;4.07;2.15;;;;;;;1.40;48.64;101568.19;4902263;28;20037;-67
2023/03/09 04:51:22;;;;;;;6.22;2.15;;;;;;;1.45;47.55;101561.56;4900386;28;20056;-67
2023/03/09 04:53:56;;;;;;;4.07;2.50;;;;;;;1.62;48.40;101563.13;4904355;28;20052;-67
2023/03/09 04:56:28;;;;;;;7.18;2.50;;;;;;;1.57;47.15;101562.03;4904658;28;20072;-67
2023/03/09 04:58:58;;;;;;;7.28;3.70;;;;;;;1.70;47.51;101568.59;4904709;28;20070;-67
2023/03/09 05:01:29;;;;;;;6.78;4.00;;;;;;;1.65;46.65;101570.97;4910937;28;20049;-66
2023/03/09 05:04:01;;;;;;;4.78;3.25;;;;;;;1.67;47.95;101574.50;4918092;28;20068;-66
2023/03/09 05:06:32;;;;;;;5.93;3.00;;;;;;;1.88;48.35;101573.59;4906485;28;20074;-67
2023/03/09 05:09:04;;;;;;;7.75;3.75;;;;;;;1.98;47.77;101575.72;4902398;28;20072;-67
2023/03/09 05:11:35;;;;;;;6.10;3.65;;;;;;;1.93;47.33;101587.53;4904688;28;20048;-67
2023/03/09 05:14:06;;;;;;;10.18;4.47;;;;;;;1.79;47.10;101578.38;4906999;28;20058;-67
2023/03/09 05:16:36;;;;;;;7.75;4.57;;;;;;;1.69;47.54;101569.38;4907313;28;20068;-67
2023/03/09 05:19:10;;;;;;;7.70;4.55;;;;;;;1.81;47.81;101577.63;4906031;28;20048;-67
2023/03/09 05:21:41;;;;;;;8.43;4.47;;;;;;;1.91;47.89;101573.72;4888847;28;20045;-67
2023/03/09 05:24:11;;;;;;;6.78;3.85;;;;;;;1.88;48.03;101571.00;4900217;28;20056;-67
2023/03/09 05:26:42;;;;;;;4.10;2.60;;;;;;;1.77;48.57;101564.53;4906378;28;20063;-66
2023/03/09 05:29:13;;;;;;;3.22;2.40;;;;;;;1.58;48.42;101561.22;4904357;28;20406;-67
2023/03/09 05:31:43;;;;;;;5.63;2.30;;;;;;;1.53;48.39;101557.59;4910786;28;20449;-67
2023/03/09 05:34:19;;;;;;;7.13;3.40;;;;;;;1.52;48.91;101560.97;4903460;28;20045;-67
2023/03/09 05:36:52;;;;;;;5.93;2.78;;;;;;;1.50;48.52;101555.75;4887854;28;20691;-66
2023/03/09 05:39:22;;;;;;;4.65;2.38;;;;;;;1.34;48.05;101562.78;4903111;28;20052;-66
2023/03/09 05:41:53;;;;;;;3.78;2.38;;;;;;;1.37;49.27;101557.75;4903882;28;20048;-68
2023/03/09 05:44:24;;;;;;;3.95;1.92;;;;;;;1.32;48.26;101551.53;4902937;28;20059;-67
2023/03/09 05:46:55;;;;;;;4.22;2.10;;;;;;;1.23;48.64;101554.63;4908700;28;20052;-67
2023/03/09 05:49:28;;;;;;;3.75;2.50;;;;;;;1.17;47.43;101565.50;4901036;28;20474;-67
2023/03/09 05:51:59;;;;;;;6.50;2.88;;;;;;;0.88;47.75;101561.69;4905560;28;20479;-67
2023/03/09 05:54:30;;;;;;;5.28;2.25;;;;;;;0.83;49.05;101566.66;4903388;28;20183;-66
2023/03/09 05:57:01;;;;;;;7.15;3.45;;;;;;;0.70;48.59;101554.06;4912605;28;20483;-67
2023/03/09 05:59:31;;;;;;;7.68;4.22;;;;;;;0.69;48.64;101554.84;4911862;28;20102;-68
2023/03/09 06:02:02;;;;;;;8.82;3.70;;;;;;;0.38;48.10;101522.63;4907756;28;20707;-67
2023/03/09 06:04:35;;;;;;;11.52;5.45;;;;;;;0.45;48.83;101548.59;4907830;28;20158;-67
2023/03/09 06:07:05;;;;;;;5.43;3.30;;;;;;;0.41;49.33;101543.34;4909843;28;20417;-67
2023/03/09 06:09:36;;;;;;;6.20;3.83;;;;;;;0.34;49.10;101546.44;4910064;28;20047;-68
2023/03/09 06:12:07;;;;;;;6.20;2.75;;;;;;;0.27;49.45;101549.53;4901635;28;20139;-68
2023/03/09 06:14:39;;;;;;;4.10;2.60;;;;;;;0.19;49.32;101551.75;4904505;28;20057;-67
2023/03/09 06:17:10;;;;;;;4.57;2.97;;;;;;;0.08;49.60;101546.94;4908674;28;20049;-67
2023/03/09 06:19:42;;;;;;;4.68;2.42;;;;;;;0.05;50.11;101551.91;4903684;28;20058;-67
2023/03/09 06:22:13;;;;;;;4.63;2.30;;;;;;;-0.03;50.13;101557.56;4903801;28;20049;-67
2023/03/09 06:24:43;;;;;;;3.92;2.13;;;;;;;-0.02;50.76;101556.78;4901872;28;20076;-67
2023/03/09 06:27:14;;;;;;;4.72;2.75;;;;;;;-0.25;50.79;101505.97;4899975;28;20060;-68
2023/03/09 06:29:45;;;;;;;6.40;2.60;;;;;;;-0.02;51.40;101541.38;4904066;28;20062;-68
2023/03/09 06:32:16;;;;;;;3.97;2.30;;;;;;;-0.01;51.21;101545.69;4906285;28;20159;-67
2023/03/09 06:34:48;;;;;;;5.07;2.88;;;;;;;-0.28;50.88;101527.25;4903100;28;20075;-68
2023/03/09 06:37:19;;;;;;;4.93;2.97;;;;;;;-0.33;51.44;101538.13;4904646;28;20054;-66
2023/03/09 06:39:50;;;;;;;6.28;3.42;;;;;;;-0.40;51.62;101536.06;4913210;28;20057;-66
2023/03/09 06:42:21;;;;;;;8.30;4.50;;;;;;;-0.49;52.08;101541.66;4909156;28;20211;-67
2023/03/09 06:44:51;;;;;;;4.70;2.88;;;;;;;-0.55;53.17;101546.47;4904756;28;20108;-68
2023/03/09 06:47:22;;;;;;;4.72;2.72;;;;;;;-0.60;53.00;101538.56;4902474;28;20114;-68
2023/03/09 06:49:54;;;;;;;4.25;2.95;;;;;;;-0.70;52.50;101537.25;4908734;28;20060;-68
2023/03/09 06:52:25;;;;;;;5.40;2.78;;;;;;;-0.79;53.16;101530.75;4902305;28;20044;-68
2023/03/09 06:54:56;;;;;;;5.38;2.90;;;;;;;-1.09;53.29;101474.53;4906072;28;20052;-69
2023/03/09 06:57:41;;;;;;;4.40;2.88;;;;;;;-0.79;53.93;101536.78;4895526;28;20060;-69
2023/03/09 07:00:14;;;;;;;7.45;3.75;;;;;;;-0.93;53.25;101532.63;4907109;28;20074;-68
2023/03/09 07:02:45;;;;;;;7.30;4.50;;;;;;;-0.94;53.71;101516.34;4906061;28;20164;-69
2023/03/09 07:05:17;;;;;;;6.57;4.13;;;;;;;-0.91;54.28;101524.19;4909432;28;20059;-68
2023/03/09 07:07:48;;;;;;;7.70;3.65;;;;;;;-0.91;54.50;101526.75;4903817;28;20060;-69
2023/03/09 07:10:18;;;;;;;6.97;3.22;;;;;;;-1.00;54.63;101521.19;4905170;28;20053;-68
2023/03/09 07:12:50;;;;;;;4.30;2.90;;;;;;;-1.19;54.79;101506.53;4905117;28;20053;-67
2023/03/09 07:15:20;;;;;;;5.10;3.38;;;;;;;-1.22;54.85;101523.44;4903591;28;20053;-68
2023/03/09 07:17:51;;;;;;;5.20;3.20;;;;;;;-1.38;55.40;101526.91;4908975;28;20399;-67
2023/03/09 07:20:24;;;;;;;10.50;4.57;;;;;;;-1.46;55.88;101530.75;4907457;28;20049;-68
2023/03/09 07:22:54;;;;;;;10.68;5.47;;;;;;;-1.50;56.12;101537.38;4904164;28;20052;-67
2023/03/09 07:25:25;;;;;;;8.98;4.93;;;;;;;-1.63;56.89;101529.84;4909966;28;20494;-66
2023/03/09 07:27:55;;;;;;;7.85;4.30;;;;;;;-1.71;56.95;101533.69;4897309;28;20061;-69
2023/03/09 07:30:28;;;;;;;6.15;3.38;;;;;;;-1.89;57.15;101547.28;4911361;28;20074;-67
2023/03/09 07:32:59;;;;;;;13.30;5.47;;;;;;;-2.12;58.75;101542.56;4907671;28;20059;-67
2023/03/09 07:35:31;;;;;;;5.80;2.30;;;;;;;-2.61;56.02;101541.56;4909425;28;20211;-67
2023/03/09 07:38:01;;;;;;;3.67;1.95;;;;;;;-3.05;57.06;101552.66;4905225;28;20140;-67
2023/03/09 07:40:32;;;;;;;4.18;2.28;;;;;;;-2.75;61.40;101545.00;4915239;28;20054;-68
2023/03/09 07:43:02;;;;;;;4.53;2.55;;;;;;;-2.69;62.19;101547.94;4901113;28;20048;-67
2023/03/09 07:45:33;;;;;;;4.53;2.47;;;;;;;-2.12;64.42;101547.69;4904172;28;20049;-68
2023/03/09 07:48:04;;;;;;;3.97;2.40;;;;;;;-1.63;64.75;101550.34;4910322;28;20066;-66
2023/03/09 07:50:36;;;;;;;7.13;2.63;;;;;;;-1.55;64.46;101554.19;4911943;28;20151;-69
2023/03/09 07:53:07;;;;;;;3.00;2.05;;;;;;;-1.68;60.53;101547.53;4908021;28;20380;-67
2023/03/09 07:55:38;;;;;;;4.70;2.20;;;;;;;-1.70;62.05;101545.69;4903889;28;20045;-69
2023/03/09 07:58:08;;;;;;;3.05;1.95;;;;;;;-1.76;61.06;101534.31;4905269;28;20053;-68
2023/03/09 08:00:42;;;;;;;3.08;2.28;;;;;;;-1.99;61.41;101521.97;4904013;28;21232;-68
2023/03/09 08:03:12;;;;;;;2.80;2.00;;;;;;;-1.97;61.64;101525.50;4908531;28;20562;-69
2023/03/09 08:05:49;;;;;;;4.35;1.95;;;;;;;-1.99;60.46;101529.66;4907146;28;20052;-70
2023/03/09 08:08:20;;;;;;;4.07;2.50;;;;;;;-1.93;63.16;101529.97;4901020;28;20120;-68
2023/03/09 08:10:52;;;;;;;3.25;2.25;;;;;;;-1.49;64.50;101518.66;4906017;28;20062;-68
2023/03/09 08:13:45;;;;;;;6.22;3.85;;;;;;;-1.10;64.22;101534.31;4903258;28;20483;-66
2023/03/09 08:16:16;;;;;;;7.32;2.92;;;;;;;-1.33;61.31;101541.72;4893764;28;20060;-66
2023/03/09 08:18:50;;;;;;;8.93;4.13;;;;;;;-1.40;63.07;101539.66;4912130;28;20376;-66
2023/03/09 08:21:24;;;;;;;4.25;3.15;;;;;;;-1.54;62.21;101540.59;4900445;28;20060;-67
2023/03/09 08:23:59;;;;;;;8.18;4.25;;;;;;;-1.68;61.47;101552.66;4909953;28;20052;-69
2023/03/09 08:26:30;;;;;;;12.32;5.80;;;;;;;-1.77;63.01;101547.94;4902023;28;20060;-66
2023/03/09 08:29:01;;;;;;;14.98;7.43;;;;;;;-1.50;64.85;101560.44;4910199;28;20061;-66
2023/03/09 08:31:37;;;;;;;17.77;9.00;;;;;;;-1.79;60.87;101553.78;4902574;28;20428;-70
2023/03/09 08:34:07;;;;;;;17.73;6.90;;;;;;;-2.71;58.44;101558.88;4902094;28;20056;-66
2023/03/09 08:36:40;;;;;;;14.88;6.85;;;;;;;-3.51;59.27;101560.13;4903058;28;20072;-69
2023/03/09 08:39:12;;;;;;;102.72;30.88;;;;;;;-4.07;60.13;101565.13;4893815;28;20052;-66
2023/03/09 08:41:43;;;;;;;47.35;16.77;;;;;;;-4.61;61.22;101514.91;4906467;28;20048;-69
2023/03/09 08:44:14;;;;;;;15.68;5.18;;;;;;;-4.60;61.83;101572.75;4907260;28;20128;-69
2023/03/09 08:46:48;;;;;;;12.27;5.28;;;;;;;-4.80;62.64;101576.56;4913330;28;20056;-65
2023/03/09 08:49:20;;;;;;;8.90;3.75;;;;;;;-4.91;63.27;101568.19;4900473;28;20064;-65
2023/03/09 08:51:57;;;;;;;5.05;2.80;;;;;;;-5.14;63.44;101574.31;4911851;28;20053;-67
2023/03/09 08:54:30;;;;;;;6.28;2.80;;;;;;;-5.29;63.89;101579.25;4903085;28;20063;-64
2023/03/09 08:57:00;;;;;;;3.10;2.38;;;;;;;-5.34;64.92;101572.97;4898489;28;20495;-65
2023/03/09 08:59:31;;;;;;;3.10;2.60;;;;;;;-5.35;65.27;101563.53;4907267;28;20194;-64
2023/03/09 09:02:02;;;;;;;4.22;2.50;;;;;;;-5.32;65.84;101556.09;4904160;28;20156;-65
2023/03/09 09:04:33;;;;;;;5.18;3.08;;;;;;;-5.44;66.68;101560.38;4906251;28;20216;-67
2023/03/09 09:07:05;;;;;;;5.47;3.10;;;;;;;-5.54;67.35;101565.56;4902998;28;20102;-66
2023/03/09 09:09:36;;;;;;;7.10;3.83;;;;;;;-5.56;67.62;101567.16;4907176;28;20048;-68
2023/03/09 09:12:11;;;;;;;12.20;3.97;;;;;;;-5.57;67.91;101575.56;4906774;28;20075;-65
2023/03/09 09:14:42;;;;;;;6.82;3.30;;;;;;;-5.61;68.44;101578.69;4896476;28;20052;-64
2023/03/09 09:17:13;;;;;;;6.18;2.88;;;;;;;-5.68;68.42;101575.69;4905416;28;20143;-66
2023/03/09 09:19:44;;;;;;;4.75;2.53;;;;;;;-5.75;68.28;101576.03;4907093;28;20052;-65
2023/03/09 09:22:20;;;;;;;4.63;2.55;;;;;;;-5.72;68.73;101566.06;4909792;28;20057;-64
2023/03/09 09:24:56;;;;;;;3.75;2.30;;;;;;;-5.69;68.57;101566.31;4898002;28;20513;-66
2023/03/09 09:27:29;;;;;;;5.65;3.13;;;;;;;-5.71;68.77;101577.16;4906604;28;20049;-64
2023/03/09 09:30:03;;;;;;;13.18;5.25;;;;;;;-5.73;69.07;101579.59;4899002;28;21372;-66
2023/03/09 09:32:34;;;;;;;12.70;4.57;;;;;;;-5.70;69.14;101577.25;4905315;28;20058;-66
2023/03/09 09:35:17;;;;;;;21.35;7.35;;;;;;;-5.87;69.51;101539.53;4905727;28;20566;-66
2023/03/09 09:37:51;;;;;;;7.00;3.63;;;;;;;-5.66;69.39;101579.25;4896761;28;20048;-66
2023/03/09 09:40:27;;;;;;;9.75;4.68;;;;;;;-5.73;69.08;101569.41;4899299;28;20049;-67
2023/03/09 09:42:58;;;;;;;12.25;4.47;;;;;;;-5.76;69.17;101569.19;4902119;28;20147;-67
2023/03/09 09:45:34;;;;;;;9.45;3.67;;;;;;;-5.75;69.43;101570.94;4905838;28;22509;-65
2023/03/09 09:48:17;;;;;;;6.80;3.13;;;;;;;-5.74;69.77;101582.94;4891293;28;20183;-64
2023/03/09 09:51:13;;;;;;;6.68;3.20;;;;;;;-5.57;70.17;101580.66;4894948;28;20062;-65
2023/03/09 09:54:29;;;;;;;2.90;2.53;;;;;;;-5.90;69.28;101542.75;4884921;28;20048;-68
2023/03/09 09:57:02;;;;;;;3.47;2.47;;;;;;;-5.94;69.55;101547.56;4898879;28;20052;-69
2023/03/09 09:59:42;;;;;;;3.90;2.80;;;;;;;-6.05;70.19;101564.63;4904963;28;20136;-67
2023/03/09 10:02:49;;;;;;;5.40;2.58;;;;;;;-6.15;70.40;101570.72;4884062;28;20467;-68
2023/03/09 10:05:32;;;;;;;3.33;2.60;;;;;;;-6.47;70.96;101519.19;4879505;28;20066;-69
2023/03/09 10:08:22;;;;;;;3.70;2.30;;;;;;;-6.62;71.45;101499.50;4898031;28;20117;-66
2023/03/09 10:10:54;;;;;;;4.03;2.22;;;;;;;-6.23;71.67;101569.28;4897457;28;20403;-67
2023/03/09 10:13:33;;;;;;;4.82;3.00;;;;;;;-6.23;71.78;101569.28;4899478;28;20119;-68
2023/03/09 10:16:18;;;;;;;5.32;3.30;;;;;;;-6.33;71.63;101561.78;4877957;28;20087;-69
2023/03/09 10:19:03;;;;;;;4.53;2.92;;;;;;;-6.17;71.59;101579.88;4892122;28;20064;-66
2023/03/09 10:21:43;;;;;;;5.78;3.30;;;;;;;-6.33;71.76;101519.41;4894310;28;20053;-66
2023/03/09 10:24:22;;;;;;;4.23;2.70;;;;;;;-6.12;71.17;101568.38;4897583;28;20616;-69
2023/03/09 10:26:59;;;;;;;4.13;2.90;;;;;;;-6.03;71.33;101582.56;4899224;28;20349;-66
2023/03/09 10:29:45;;;;;;;5.25;3.30;;;;;;;-6.25;71.07;101570.84;4889253;28;20059;-65
2023/03/09 10:32:22;;;;;;;6.50;2.70;;;;;;;-6.44;71.26;101572.81;4892013;28;20479;-65
2023/03/09 10:34:59;;;;;;;6.65;3.83;;;;;;;-6.32;72.16;101578.78;4900423;28;20466;-66
2023/03/09 10:37:37;;;;;;;7.38;3.67;;;;;;;-6.13;72.25;101579.34;4903477;28;20323;-65
2023/03/09 10:40:20;;;;;;;8.02;3.40;;;;;;;-6.29;71.90;101543.38;4903613;28;20408;-66
2023/03/09 10:42:55;;;;;;;6.68;3.35;;;;;;;-6.05;71.80;101590.06;4900750;28;20125;-68
2023/03/09 10:45:30;;;;;;;5.63;3.90;;;;;;;-6.19;71.32;101571.28;4912953;28;20114;-67
2023/03/09 10:48:06;;;;;;;5.57;3.53;;;;;;;-6.16;71.56;101585.88;4893412;28;20114;-68
2023/03/09 10:50:40;;;;;;;7.95;3.80;;;;;;;-6.20;71.51;101576.25;4908356;28;20483;-66
2023/03/09 10:53:28;;;;;;;7.05;3.65;;;;;;;-6.14;71.88;101580.13;4902433;28;21208;-68
2023/03/09 10:56:14;;;;;;;7.18;3.80;;;;;;;-6.15;72.14;101573.25;4903419;28;20142;-66
2023/03/09 10:58:47;;;;;;;7.80;3.45;;;;;;;-6.19;71.81;101553.47;4899408;28;20869;-68
2023/03/09 11:01:24;;;;;;;8.05;4.18;;;;;;;-6.21;72.14;101572.84;4907413;28;20048;-66
2023/03/09 11:03:55;;;;;;;9.65;4.25;;;;;;;-6.29;72.10;101571.38;4902791;28;20168;-68
2023/03/09 11:06:32;;;;;;;8.60;4.80;;;;;;;-6.24;72.82;101572.63;4903845;28;20585;-66
2023/03/09 11:09:15;;;;;;;10.57;4.78;;;;;;;-6.44;72.63;101562.63;4900275;28;20045;-68
2023/03/09 11:11:48;;;;;;;9.65;4.65;;;;;;;-6.38;73.12;101560.56;4900663;28;20052;-68
2023/03/09 11:14:27;;;;;;;8.60;3.72;;;;;;;-6.39;73.23;101515.53;4901323;28;20044;-63
2023/03/09 11:17:02;;;;;;;8.85;4.50;;;;;;;-6.18;73.24;101552.69;4908531;28;20048;-64
2023/03/09 11:19:35;;;;;;;7.75;3.72;;;;;;;-6.25;72.59;101545.41;4896050;28;20063;-66
2023/03/09 11:22:14;;;;;;;5.50;4.00;;;;;;;-6.45;72.78;101545.63;4910547;28;20048;-66
2023/03/09 11:24:47;;;;;;;8.13;4.28;;;;;;;-6.58;73.18;101544.72;4898964;28;20057;-66
2023/03/09 11:27:24;;;;;;;8.25;4.55;;;;;;;-6.70;73.72;101536.22;4904885;28;20063;-66
2023/03/09 11:30:02;;;;;;;8.48;4.85;;;;;;;-6.53;73.98;101543.41;4901396;28;20067;-64
2023/03/09 11:32:33;;;;;;;6.03;4.70;;;;;;;-6.40;74.10;101549.38;4887477;28;20060;-64
2023/03/09 11:35:04;;;;;;;7.93;4.45;;;;;;;-6.52;73.89;101550.25;4908937;28;20059;-65
2023/03/09 11:37:41;;;;;;;7.68;5.00;;;;;;;-6.66;73.94;101548.38;4905860;28;20044;-63
2023/03/09 11:40:15;;;;;;;7.45;4.63;;;;;;;-6.75;74.34;101535.00;4898964;28;20044;-66
2023/03/09 11:42:50;;;;;;;7.38;4.85;;;;;;;-7.35;74.46;101445.88;4905875;28;20056;-67
2023/03/09 11:45:27;;;;;;;8.23;4.75;;;;;;;-6.73;75.04;101546.16;4893903;28;20451;-67
2023/03/09 11:48:01;;;;;;;6.55;3.95;;;;;;;-6.57;75.20;101551.56;4907185;28;20049;-66
2023/03/09 11:50:37;;;;;;;7.55;3.90;;;;;;;-6.51;75.19;101546.06;4899714;28;20853;-66
2023/03/09 11:53:14;;;;;;;7.38;4.43;;;;;;;-6.57;74.37;101543.94;4905173;28;20132;-66
2023/03/09 11:55:50;;;;;;;8.05;4.10;;;;;;;-6.57;74.36;101545.59;4893741;28;20084;-64
2023/03/09 11:58:30;;;;;;;5.78;3.72;;;;;;;-6.63;74.44;101561.31;4902955;28;20064;-64